Time,TemperatureF,DewpointF,PressureIn,WindDirection,WindDirectionDegrees,WindSpeedMPH,WindSpeedGustMPH,Humidity,HourlyPrecipIn,Conditions,Clouds,dailyrainin,SolarRadiationWatts/m^2,SoftwareType,DateUTC
2013-04-15 00:41:00,43.0,42.0,-100.00,NW,317,12.0,17.0,95,0.00,,,0.00,0.000000,,2013-04-15 07:41:00,
2013-04-15 00:42:00,43.0,42.0,-100.00,NW,317,12.0,17.0,95,0.00,,,0.00,0.000000,,2013-04-15 07:42:00,
2013-04-15 00:50:00,43.0,41.0,-100.00,NW,313,7.0,16.0,92,0.00,,,0.00,0.000000,,2013-04-15 07:50:00,
2013-04-15 01:13:00,43.0,41.0,-100.00,NW,313,7.0,16.0,92,0.00,,,0.00,0.000000,,2013-04-15 08:13:00,
2013-04-15 01:22:00,43.0,41.0,-100.00,NW,313,7.0,16.0,92,0.00,,,0.00,0.000000,,2013-04-15 08:22:00,
2013-04-15 01:33:00,43.0,41.0,-100.00,NW,313,7.0,16.0,92,0.00,,,0.00,0.000000,,2013-04-15 08:33:00,
2013-04-15 01:42:00,43.0,41.0,-100.00,NW,313,7.0,16.0,92,0.00,,,0.00,0.000000,,2013-04-15 08:42:00,
2013-04-15 01:50:00,43.0,41.0,-100.00,NW,312,6.0,12.0,92,0.00,,,0.00,0.000000,,2013-04-15 08:50:00,
2013-04-15 02:12:00,43.0,41.0,-100.00,NW,312,6.0,12.0,92,0.00,,,0.00,0.000000,,2013-04-15 09:12:00,
2013-04-15 02:22:00,43.0,41.0,-100.00,NW,312,6.0,12.0,92,0.00,,,0.00,0.000000,,2013-04-15 09:22:00,
2013-04-15 02:32:00,43.0,41.0,-100.00,NW,312,6.0,12.0,92,0.00,,,0.00,0.000000,,2013-04-15 09:32:00,
2013-04-15 02:42:00,43.0,41.0,-100.00,NW,312,6.0,12.0,92,0.00,,,0.00,0.000000,,2013-04-15 09:42:00,
2013-04-15 02:50:00,44.0,41.0,-100.00,WNW,303,11.0,15.0,90,0.00,,,0.00,0.000000,,2013-04-15 09:50:00,
2013-04-15 03:23:00,44.0,41.0,-100.00,WNW,303,11.0,15.0,90,0.00,,,0.00,0.000000,,2013-04-15 10:23:00,
2013-04-15 03:33:00,44.0,41.0,-100.00,WNW,303,11.0,15.0,90,0.00,,,0.00,0.000000,,2013-04-15 10:33:00,
2013-04-15 03:42:00,44.0,41.0,-100.00,WNW,303,11.0,15.0,90,0.00,,,0.00,0.000000,,2013-04-15 10:42:00,
2013-04-15 03:50:00,42.0,37.0,-100.00,WNW,301,12.0,21.0,82,0.00,,,0.00,0.000000,,2013-04-15 10:50:00,
2013-04-15 04:12:00,42.0,37.0,-100.00,WNW,301,12.0,21.0,82,0.00,,,0.00,0.000000,,2013-04-15 11:12:00,
2013-04-15 04:22:00,42.0,37.0,-100.00,WNW,301,12.0,21.0,82,0.00,,,0.00,0.000000,,2013-04-15 11:22:00,
2013-04-15 04:32:00,42.0,37.0,-100.00,WNW,301,12.0,21.0,82,0.00,,,0.00,0.000000,,2013-04-15 11:32:00,
2013-04-15 04:42:00,42.0,37.0,-100.00,WNW,301,12.0,21.0,82,0.00,,,0.00,0.000000,,2013-04-15 11:42:00,
2013-04-15 04:50:00,40.0,35.0,-100.00,NW,309,8.0,18.0,82,0.00,,,0.00,0.000000,,2013-04-15 11:50:00,
2013-04-15 05:13:00,40.0,35.0,-100.00,NW,309,8.0,18.0,82,0.00,,,0.00,0.000000,,2013-04-15 12:13:00,
2013-04-15 05:23:00,40.0,35.0,-100.00,NW,309,8.0,18.0,82,0.00,,,0.00,0.000000,,2013-04-15 12:23:00,
2013-04-15 05:33:00,40.0,35.0,-100.00,NW,309,8.0,18.0,82,0.00,,,0.00,0.000000,,2013-04-15 12:33:00,
2013-04-15 05:42:00,40.0,35.0,-100.00,NW,309,8.0,18.0,82,0.00,,,0.00,0.000000,,2013-04-15 12:42:00,
2013-04-15 05:50:00,38.0,34.0,-100.00,NNW,331,4.0,8.0,86,0.00,,,0.00,0.000000,,2013-04-15 12:50:00,
2013-04-15 06:12:00,38.0,34.0,-100.00,NNW,331,4.0,8.0,86,0.00,,,0.00,0.000000,,2013-04-15 13:12:00,
2013-04-15 06:23:00,38.0,34.0,-100.00,NNW,331,4.0,8.0,86,0.00,,,0.00,0.000000,,2013-04-15 13:23:00,
2013-04-15 06:42:00,38.0,34.0,-100.00,NNW,331,4.0,8.0,86,0.00,,,0.00,0.000000,,2013-04-15 13:42:00,
2013-04-15 06:50:00,36.0,33.0,-100.00,ESE,121,1.0,6.0,90,0.00,,,0.00,2.000000,,2013-04-15 13:50:00,
2013-04-15 07:22:00,36.0,33.0,-100.00,ESE,121,1.0,6.0,90,0.00,,,0.00,2.000000,,2013-04-15 14:22:00,
2013-04-15 07:33:00,36.0,33.0,-100.00,ESE,121,1.0,6.0,90,0.00,,,0.00,2.000000,,2013-04-15 14:33:00,
2013-04-15 07:43:00,36.0,33.0,-100.00,ESE,121,1.0,6.0,90,0.00,,,0.00,2.000000,,2013-04-15 14:43:00,
2013-04-15 07:50:00,39.0,37.0,-100.00,NNW,330,5.0,6.0,91,0.00,,,0.00,45.000000,,2013-04-15 14:50:00,
2013-04-15 08:13:00,39.0,37.0,-100.00,NNW,330,5.0,6.0,91,0.00,,,0.00,45.000000,,2013-04-15 15:13:00,
2013-04-15 08:23:00,39.0,37.0,-100.00,NNW,330,5.0,6.0,91,0.00,,,0.00,45.000000,,2013-04-15 15:23:00,
2013-04-15 08:34:00,39.0,37.0,-100.00,NNW,330,5.0,6.0,91,0.00,,,0.00,45.000000,,2013-04-15 15:34:00,
2013-04-15 08:43:00,39.0,37.0,-100.00,NNW,330,5.0,6.0,91,0.00,,,0.00,45.000000,,2013-04-15 15:43:00,
2013-04-15 08:50:00,44.0,37.0,-100.00,NNW,343,6.0,11.0,75,0.00,,,0.00,296.000000,,2013-04-15 15:50:00,
2013-04-15 09:13:00,44.0,37.0,-100.00,NNW,343,6.0,11.0,75,0.00,,,0.00,296.000000,,2013-04-15 16:13:00,
2013-04-15 09:23:00,44.0,37.0,-100.00,NNW,343,6.0,11.0,75,0.00,,,0.00,296.000000,,2013-04-15 16:23:00,
2013-04-15 09:33:00,44.0,37.0,-100.00,NNW,343,6.0,11.0,75,0.00,,,0.00,296.000000,,2013-04-15 16:33:00,
2013-04-15 09:50:00,47.0,36.0,-100.00,NW,319,11.0,16.0,66,0.00,,,0.00,470.000000,,2013-04-15 16:50:00,
2013-04-15 10:21:00,47.0,36.0,-100.00,NW,319,11.0,16.0,66,0.00,,,0.00,470.000000,,2013-04-15 17:21:00,
2013-04-15 10:33:00,47.0,36.0,-100.00,NW,319,11.0,16.0,66,0.00,,,0.00,470.000000,,2013-04-15 17:33:00,
2013-04-15 10:43:00,47.0,36.0,-100.00,NW,319,11.0,16.0,66,0.00,,,0.00,470.000000,,2013-04-15 17:43:00,
2013-04-15 10:50:00,50.0,34.0,-100.00,NW,313,15.0,23.0,54,0.00,,,0.00,453.000000,,2013-04-15 17:50:00,
2013-04-15 11:12:00,50.0,34.0,-100.00,NW,313,15.0,23.0,54,0.00,,,0.00,453.000000,,2013-04-15 18:12:00,
2013-04-15 11:23:00,50.0,34.0,-100.00,NW,313,15.0,23.0,54,0.00,,,0.00,453.000000,,2013-04-15 18:23:00,
2013-04-15 11:32:00,50.0,34.0,-100.00,NW,313,15.0,23.0,54,0.00,,,0.00,453.000000,,2013-04-15 18:32:00,
2013-04-15 11:42:00,50.0,34.0,-100.00,NW,313,15.0,23.0,54,0.00,,,0.00,453.000000,,2013-04-15 18:42:00,
2013-04-15 11:50:00,51.0,33.0,-100.00,NW,306,18.0,27.0,50,0.00,,,0.00,796.000000,,2013-04-15 18:50:00,
2013-04-15 12:12:00,51.0,33.0,-100.00,NW,306,18.0,27.0,50,0.00,,,0.00,796.000000,,2013-04-15 19:12:00,
2013-04-15 12:22:00,51.0,33.0,-100.00,NW,306,18.0,27.0,50,0.00,,,0.00,796.000000,,2013-04-15 19:22:00,
2013-04-15 12:34:00,51.0,33.0,-100.00,NW,306,18.0,27.0,50,0.00,,,0.00,796.000000,,2013-04-15 19:34:00,
2013-04-15 12:45:00,51.0,33.0,-100.00,NW,306,18.0,27.0,50,0.00,,,0.00,796.000000,,2013-04-15 19:45:00,
2013-04-15 12:50:00,52.0,34.0,-100.00,WNW,299,20.0,32.0,50,0.00,,,0.00,709.000000,,2013-04-15 19:50:00,
2013-04-15 13:22:00,52.0,34.0,-100.00,WNW,299,20.0,32.0,50,0.00,,,0.00,709.000000,,2013-04-15 20:22:00,
2013-04-15 13:32:00,52.0,34.0,-100.00,WNW,299,20.0,32.0,50,0.00,,,0.00,709.000000,,2013-04-15 20:32:00,
2013-04-15 13:42:00,52.0,34.0,-100.00,WNW,299,20.0,32.0,50,0.00,,,0.00,709.000000,,2013-04-15 20:42:00,
2013-04-15 13:50:00,54.0,36.0,-100.00,WNW,302,17.0,36.0,51,0.00,,,0.00,822.000000,,2013-04-15 20:50:00,
2013-04-15 14:12:00,54.0,36.0,-100.00,WNW,302,17.0,36.0,51,0.00,,,0.00,822.000000,,2013-04-15 21:12:00,
2013-04-15 14:22:00,54.0,36.0,-100.00,WNW,302,17.0,36.0,51,0.00,,,0.00,822.000000,,2013-04-15 21:22:00,
2013-04-15 14:32:00,54.0,36.0,-100.00,WNW,302,17.0,36.0,51,0.00,,,0.00,822.000000,,2013-04-15 21:32:00,
2013-04-15 14:42:00,54.0,36.0,-100.00,WNW,302,17.0,36.0,51,0.00,,,0.00,822.000000,,2013-04-15 21:42:00,
2013-04-15 14:50:00,52.0,33.0,-100.00,WNW,299,21.0,33.0,49,0.00,,,0.00,865.000000,,2013-04-15 21:50:00,
2013-04-15 15:23:00,52.0,33.0,-100.00,WNW,299,21.0,33.0,49,0.00,,,0.00,865.000000,,2013-04-15 22:23:00,
2013-04-15 15:32:00,52.0,33.0,-100.00,WNW,299,21.0,33.0,49,0.00,,,0.00,865.000000,,2013-04-15 22:32:00,
2013-04-15 15:42:00,52.0,33.0,-100.00,WNW,299,21.0,33.0,49,0.00,,,0.00,865.000000,,2013-04-15 22:42:00,
2013-04-15 15:50:00,52.0,32.0,-100.00,WNW,302,22.0,34.0,46,0.00,,,0.00,864.000000,,2013-04-15 22:50:00,
2013-04-15 16:22:00,52.0,32.0,-100.00,WNW,302,22.0,34.0,46,0.00,,,0.00,864.000000,,2013-04-15 23:22:00,
2013-04-15 16:32:00,52.0,32.0,-100.00,WNW,302,22.0,34.0,46,0.00,,,0.00,864.000000,,2013-04-15 23:32:00,
2013-04-15 16:42:00,52.0,32.0,-100.00,WNW,302,22.0,34.0,46,0.00,,,0.00,864.000000,,2013-04-15 23:42:00,
2013-04-15 16:50:00,51.0,33.0,-100.00,NW,305,18.0,30.0,50,0.00,,,0.00,559.000000,,2013-04-15 23:50:00,
2013-04-15 17:12:00,51.0,33.0,-100.00,NW,305,18.0,30.0,50,0.00,,,0.00,559.000000,,2013-04-16 00:12:00,
2013-04-15 17:22:00,51.0,33.0,-100.00,NW,305,18.0,30.0,50,0.00,,,0.00,559.000000,,2013-04-16 00:22:00,
2013-04-15 17:32:00,51.0,33.0,-100.00,NW,305,18.0,30.0,50,0.00,,,0.00,559.000000,,2013-04-16 00:32:00,
2013-04-15 17:42:00,51.0,33.0,-100.00,NW,305,18.0,30.0,50,0.00,,,0.00,559.000000,,2013-04-16 00:42:00,
2013-04-15 17:50:00,49.0,34.0,-100.00,WNW,299,20.0,31.0,56,0.00,,,0.00,356.000000,,2013-04-16 00:50:00,
2013-04-15 18:12:00,49.0,34.0,-100.00,WNW,299,20.0,31.0,56,0.00,,,0.00,356.000000,,2013-04-16 01:12:00,
2013-04-15 18:22:00,49.0,34.0,-100.00,WNW,299,20.0,31.0,56,0.00,,,0.00,356.000000,,2013-04-16 01:22:00,
2013-04-15 18:32:00,49.0,34.0,-100.00,WNW,299,20.0,31.0,56,0.00,,,0.00,356.000000,,2013-04-16 01:32:00,
2013-04-15 18:42:00,49.0,34.0,-100.00,WNW,299,20.0,31.0,56,0.00,,,0.00,356.000000,,2013-04-16 01:42:00,
2013-04-15 18:50:00,48.0,34.0,-100.00,NW,308,17.0,30.0,57,0.00,,,0.00,252.000000,,2013-04-16 01:50:00,
2013-04-15 19:22:00,48.0,34.0,-100.00,NW,308,17.0,30.0,57,0.00,,,0.00,252.000000,,2013-04-16 02:22:00,
2013-04-15 19:32:00,48.0,34.0,-100.00,NW,308,17.0,30.0,57,0.00,,,0.00,252.000000,,2013-04-16 02:32:00,
2013-04-15 19:42:00,48.0,34.0,-100.00,NW,308,17.0,30.0,57,0.00,,,0.00,252.000000,,2013-04-16 02:42:00,
2013-04-15 19:50:00,45.0,33.0,-100.00,NW,311,14.0,28.0,62,0.00,,,0.00,75.000000,,2013-04-16 02:50:00,
2013-04-15 20:12:00,45.0,33.0,-100.00,NW,311,14.0,28.0,62,0.00,,,0.00,75.000000,,2013-04-16 03:12:00,
2013-04-15 20:22:00,45.0,33.0,-100.00,NW,311,14.0,28.0,62,0.00,,,0.00,75.000000,,2013-04-16 03:22:00,
2013-04-15 20:33:00,45.0,33.0,-100.00,NW,311,14.0,28.0,62,0.00,,,0.00,75.000000,,2013-04-16 03:33:00,
2013-04-15 20:43:00,45.0,33.0,-100.00,NW,311,14.0,28.0,62,0.00,,,0.00,75.000000,,2013-04-16 03:43:00,
2013-04-15 20:50:00,43.0,32.0,-100.00,NW,313,12.0,22.0,66,0.00,,,0.00,1.000000,,2013-04-16 03:50:00,
2013-04-15 21:12:00,43.0,32.0,-100.00,NW,313,12.0,22.0,66,0.00,,,0.00,1.000000,,2013-04-16 04:12:00,
2013-04-15 21:23:00,43.0,32.0,-100.00,NW,313,12.0,22.0,66,0.00,,,0.00,1.000000,,2013-04-16 04:23:00,
2013-04-15 21:32:00,43.0,32.0,-100.00,NW,313,12.0,22.0,66,0.00,,,0.00,1.000000,,2013-04-16 04:32:00,
2013-04-15 21:42:00,43.0,32.0,-100.00,NW,313,12.0,22.0,66,0.00,,,0.00,1.000000,,2013-04-16 04:42:00,
2013-04-15 21:50:00,42.0,33.0,-100.00,NW,316,9.0,21.0,71,0.00,,,0.00,0.000000,,2013-04-16 04:50:00,
2013-04-15 22:22:00,42.0,33.0,-100.00,NW,316,9.0,21.0,71,0.00,,,0.00,0.000000,,2013-04-16 05:22:00,
2013-04-15 22:32:00,42.0,33.0,-100.00,NW,316,9.0,21.0,71,0.00,,,0.00,0.000000,,2013-04-16 05:32:00,
2013-04-15 22:42:00,42.0,33.0,-100.00,NW,316,9.0,21.0,71,0.00,,,0.00,0.000000,,2013-04-16 05:42:00,
2013-04-15 22:50:00,40.0,33.0,-100.00,WNW,295,4.0,11.0,76,0.00,,,0.00,0.000000,,2013-04-16 05:50:00,
2013-04-15 23:12:00,40.0,33.0,-100.00,WNW,295,4.0,11.0,76,0.00,,,0.00,0.000000,,2013-04-16 06:12:00,
2013-04-15 23:22:00,40.0,33.0,-100.00,WNW,295,4.0,11.0,76,0.00,,,0.00,0.000000,,2013-04-16 06:22:00,
2013-04-15 23:32:00,40.0,33.0,-100.00,WNW,295,4.0,11.0,76,0.00,,,0.00,0.000000,,2013-04-16 06:32:00,
2013-04-15 23:42:00,40.0,33.0,-100.00,WNW,295,4.0,11.0,76,0.00,,,0.00,0.000000,,2013-04-16 06:42:00,
2013-04-15 23:50:00,41.0,33.0,-100.00,NNW,333,8.0,11.0,74,0.00,,,0.00,0.000000,,2013-04-16 06:50:00,